sensor_id;sensor_type;location;lat;lon;timestamp;pressure;altitude;pressure_sealevel;temperature;humidity
8398;BME280;4236;54.504;9.588;2023-06-22T00:00:27;101959.63;;;15.97;100.00
8398;BME280;4236;54.504;9.588;2023-06-22T00:02:55;101963.13;;;15.91;100.00
8398;BME280;4236;54.504;9.588;2023-06-22T00:05:23;101963.53;;;15.88;100.00
8398;BME280;4236;54.504;9.588;2023-06-22T00:07:52;101957.72;;;15.84;100.00
8398;BME280;4236;54.504;9.588;2023-06-22T00:10:20;101961.03;;;15.80;100.00
8398;BME280;4236;54.504;9.588;2023-06-22T00:12:47;101965.56;;;15.79;100.00
8398;BME280;4236;54.504;9.588;2023-06-22T00:15:15;101960.59;;;15.76;100.00
8398;BME280;4236;54.504;9.588;2023-06-22T00:17:43;101950.84;;;15.75;100.00
8398;BME280;4236;54.504;9.588;2023-06-22T00:20:11;101962.44;;;15.76;100.00
8398;BME280;4236;54.504;9.588;2023-06-22T00:22:40;101950.41;;;15.72;100.00
8398;BME280;4236;54.504;9.588;2023-06-22T00:25:11;101960.34;;;15.71;100.00
8398;BME280;4236;54.504;9.588;2023-06-22T00:27:39;101961.78;;;15.67;100.00
8398;BME280;4236;54.504;9.588;2023-06-22T00:30:07;101968.19;;;15.66;100.00
8398;BME280;4236;54.504;9.588;2023-06-22T00:32:35;101968.81;;;15.62;100.00
8398;BME280;4236;54.504;9.588;2023-06-22T00:35:03;101966.69;;;15.57;100.00
8398;BME280;4236;54.504;9.588;2023-06-22T00:37:31;101969.16;;;15.52;100.00
8398;BME280;4236;54.504;9.588;2023-06-22T00:39:59;101964.38;;;15.47;100.00
8398;BME280;4236;54.504;9.588;2023-06-22T00:42:29;101971.34;;;15.42;100.00
8398;BME280;4236;54.504;9.588;2023-06-22T00:44:57;101981.88;;;15.37;100.00
8398;BME280;4236;54.504;9.588;2023-06-22T00:47:24;101972.97;;;15.36;100.00
8398;BME280;4236;54.504;9.588;2023-06-22T00:49:52;101980.41;;;15.34;100.00
8398;BME280;4236;54.504;9.588;2023-06-22T00:52:22;101977.91;;;15.33;100.00
8398;BME280;4236;54.504;9.588;2023-06-22T00:54:53;101984.50;;;15.30;100.00
8398;BME280;4236;54.504;9.588;2023-06-22T00:57:22;101973.97;;;15.29;100.00
8398;BME280;4236;54.504;9.588;2023-06-22T00:59:54;101981.38;;;15.27;100.00
8398;BME280;4236;54.504;9.588;2023-06-22T01:02:21;101995.22;;;15.24;100.00
8398;BME280;4236;54.504;9.588;2023-06-22T01:04:49;101984.22;;;15.19;100.00
8398;BME280;4236;54.504;9.588;2023-06-22T01:07:21;101996.19;;;15.16;100.00
8398;BME280;4236;54.504;9.588;2023-06-22T01:09:57;101998.06;;;15.16;100.00
8398;BME280;4236;54.504;9.588;2023-06-22T01:12:30;101987.91;;;15.11;100.00
8398;BME280;4236;54.504;9.588;2023-06-22T01:15:03;101997.38;;;15.07;100.00
8398;BME280;4236;54.504;9.588;2023-06-22T01:17:32;101996.75;;;15.05;100.00
8398;BME280;4236;54.504;9.588;2023-06-22T01:20:01;101995.53;;;15.08;100.00
8398;BME280;4236;54.504;9.588;2023-06-22T01:22:39;101993.84;;;15.07;100.00
8398;BME280;4236;54.504;9.588;2023-06-22T01:25:13;101980.81;;;15.04;100.00
8398;BME280;4236;54.504;9.588;2023-06-22T01:27:52;101981.41;;;14.99;100.00
8398;BME280;4236;54.504;9.588;2023-06-22T01:30:24;101986.34;;;14.95;100.00
8398;BME280;4236;54.504;9.588;2023-06-22T01:32:53;101983.38;;;14.90;100.00
8398;BME280;4236;54.504;9.588;2023-06-22T01:35:22;101982.13;;;14.86;100.00
8398;BME280;4236;54.504;9.588;2023-06-22T01:37:51;101976.69;;;14.80;100.00
8398;BME280;4236;54.504;9.588;2023-06-22T01:40:19;101976.88;;;14.78;100.00
8398;BME280;4236;54.504;9.588;2023-06-22T01:42:48;101982.25;;;14.78;100.00
8398;BME280;4236;54.504;9.588;2023-06-22T01:45:16;101973.97;;;14.73;100.00
8398;BME280;4236;54.504;9.588;2023-06-22T01:47:47;101974.56;;;14.69;100.00
8398;BME280;4236;54.504;9.588;2023-06-22T01:50:15;101973.50;;;14.70;100.00
8398;BME280;4236;54.504;9.588;2023-06-22T01:52:42;101976.41;;;14.68;100.00
8398;BME280;4236;54.504;9.588;2023-06-22T01:55:10;101978.25;;;14.68;100.00
8398;BME280;4236;54.504;9.588;2023-06-22T01:57:38;101981.16;;;14.66;100.00
8398;BME280;4236;54.504;9.588;2023-06-22T02:00:10;101988.16;;;14.67;100.00
8398;BME280;4236;54.504;9.588;2023-06-22T02:02:43;101987.31;;;14.67;100.00
8398;BME280;4236;54.504;9.588;2023-06-22T02:05:16;101988.75;;;14.63;100.00
8398;BME280;4236;54.504;9.588;2023-06-22T02:07:46;101993.47;;;14.61;100.00
8398;BME280;4236;54.504;9.588;2023-06-22T02:10:20;101989.31;;;14.58;100.00
8398;BME280;4236;54.504;9.588;2023-06-22T02:12:50;101991.75;;;14.53;100.00
8398;BME280;4236;54.504;9.588;2023-06-22T02:15:19;101990.28;;;14.51;100.00
8398;BME280;4236;54.504;9.588;2023-06-22T02:17:48;101987.78;;;14.49;100.00
8398;BME280;4236;54.504;9.588;2023-06-22T02:20:17;102000.56;;;14.47;100.00
8398;BME280;4236;54.504;9.588;2023-06-22T02:22:45;102001.13;;;14.43;100.00
8398;BME280;4236;54.504;9.588;2023-06-22T02:25:12;102000.03;;;14.37;100.00
8398;BME280;4236;54.504;9.588;2023-06-22T02:27:40;102005.41;;;14.37;100.00
8398;BME280;4236;54.504;9.588;2023-06-22T02:30:09;102006.63;;;14.34;100.00
8398;BME280;4236;54.504;9.588;2023-06-22T02:32:36;102010.78;;;14.37;100.00
8398;BME280;4236;54.504;9.588;2023-06-22T02:35:09;102011.81;;;14.36;100.00
8398;BME280;4236;54.504;9.588;2023-06-22T02:37:38;102004.16;;;14.33;100.00
8398;BME280;4236;54.504;9.588;2023-06-22T02:40:08;102006.13;;;14.31;100.00
8398;BME280;4236;54.504;9.588;2023-06-22T02:42:37;102006.13;;;14.31;100.00
8398;BME280;4236;54.504;9.588;2023-06-22T02:45:05;102021.44;;;14.30;100.00
8398;BME280;4236;54.504;9.588;2023-06-22T02:47:33;102022.44;;;14.29;100.00
8398;BME280;4236;54.504;9.588;2023-06-22T02:50:01;102004.50;;;14.30;100.00
8398;BME280;4236;54.504;9.588;2023-06-22T02:52:28;102004.78;;;14.35;100.00
8398;BME280;4236;54.504;9.588;2023-06-22T02:54:57;102009.75;;;14.38;100.00
8398;BME280;4236;54.504;9.588;2023-06-22T02:57:25;102006.06;;;14.39;100.00
8398;BME280;4236;54.504;9.588;2023-06-22T02:59:53;102008.53;;;14.40;100.00
8398;BME280;4236;54.504;9.588;2023-06-22T03:02:21;102001.13;;;14.43;100.00
8398;BME280;4236;54.504;9.588;2023-06-22T03:04:49;101994.81;;;14.50;100.00
8398;BME280;4236;54.504;9.588;2023-06-22T03:07:20;101999.22;;;14.58;100.00
8398;BME280;4236;54.504;9.588;2023-06-22T03:09:47;102012.69;;;14.64;100.00
8398;BME280;4236;54.504;9.588;2023-06-22T03:12:16;102002.03;;;14.71;100.00
8398;BME280;4236;54.504;9.588;2023-06-22T03:14:44;102006.63;;;14.77;100.00
8398;BME280;4236;54.504;9.588;2023-06-22T03:17:12;101999.25;;;14.85;100.00
8398;BME280;4236;54.504;9.588;2023-06-22T03:19:39;101994.56;;;14.94;100.00
8398;BME280;4236;54.504;9.588;2023-06-22T03:22:07;101994.63;;;15.01;100.00
8398;BME280;4236;54.504;9.588;2023-06-22T03:24:38;101996.16;;;15.10;100.00
8398;BME280;4236;54.504;9.588;2023-06-22T03:27:06;101994.03;;;15.33;100.00
8398;BME280;4236;54.504;9.588;2023-06-22T03:29:35;101995.22;;;15.99;100.00
8398;BME280;4236;54.504;9.588;2023-06-22T03:32:03;101999.97;;;16.77;100.00
8398;BME280;4236;54.504;9.588;2023-06-22T03:34:32;101999.53;;;17.20;100.00
8398;BME280;4236;54.504;9.588;2023-06-22T03:37:00;101988.94;;;17.18;100.00
8398;BME280;4236;54.504;9.588;2023-06-22T03:39:29;101984.38;;;17.19;100.00
8398;BME280;4236;54.504;9.588;2023-06-22T03:41:57;101986.88;;;17.20;100.00
8398;BME280;4236;54.504;9.588;2023-06-22T03:44:25;101982.72;;;17.24;100.00
8398;BME280;4236;54.504;9.588;2023-06-22T03:46:55;101994.13;;;17.26;100.00
8398;BME280;4236;54.504;9.588;2023-06-22T03:49:23;101985.22;;;17.32;100.00
8398;BME280;4236;54.504;9.588;2023-06-22T03:51:50;101984.13;;;17.40;100.00
8398;BME280;4236;54.504;9.588;2023-06-22T03:54:18;101987.44;;;17.48;100.00
8398;BME280;4236;54.504;9.588;2023-06-22T03:56:47;101988.03;;;17.63;100.00
8398;BME280;4236;54.504;9.588;2023-06-22T03:59:14;101989.22;;;17.74;100.00
8398;BME280;4236;54.504;9.588;2023-06-22T04:01:43;101985.06;;;17.85;100.00
8398;BME280;4236;54.504;9.588;2023-06-22T04:04:12;101992.91;;;17.93;100.00
8398;BME280;4236;54.504;9.588;2023-06-22T04:06:40;101993.31;;;17.96;100.00
8398;BME280;4236;54.504;9.588;2023-06-22T04:09:08;101988.75;;;17.97;100.00
8398;BME280;4236;54.504;9.588;2023-06-22T04:11:35;101998.69;;;18.03;100.00
8398;BME280;4236;54.504;9.588;2023-06-22T04:14:03;101997.38;;;18.12;100.00
8398;BME280;4236;54.504;9.588;2023-06-22T04:16:31;101999.38;;;18.23;100.00
8398;BME280;4236;54.504;9.588;2023-06-22T04:18:58;102002.84;;;18.37;100.00
8398;BME280;4236;54.504;9.588;2023-06-22T04:21:28;102004.22;;;18.52;100.00
8398;BME280;4236;54.504;9.588;2023-06-22T04:23:55;102004.63;;;18.56;100.00
8398;BME280;4236;54.504;9.588;2023-06-22T04:26:23;102011.97;;;18.73;100.00
8398;BME280;4236;54.504;9.588;2023-06-22T04:28:51;102012.63;;;18.94;100.00
8398;BME280;4236;54.504;9.588;2023-06-22T04:31:22;102016.41;;;19.35;100.00
8398;BME280;4236;54.504;9.588;2023-06-22T04:34:00;102008.31;;;19.72;100.00
8398;BME280;4236;54.504;9.588;2023-06-22T04:36:35;102016.56;;;20.13;100.00
8398;BME280;4236;54.504;9.588;2023-06-22T04:39:05;102009.50;;;20.30;100.00
8398;BME280;4236;54.504;9.588;2023-06-22T04:41:36;102012.31;;;20.77;100.00
8398;BME280;4236;54.504;9.588;2023-06-22T04:44:09;102005.13;;;21.06;100.00
8398;BME280;4236;54.504;9.588;2023-06-22T04:46:37;101994.28;;;21.06;100.00
8398;BME280;4236;54.504;9.588;2023-06-22T04:49:06;101999.66;;;21.35;100.00
8398;BME280;4236;54.504;9.588;2023-06-22T04:51:39;101989.00;;;22.25;100.00
8398;BME280;4236;54.504;9.588;2023-06-22T04:54:09;101992.41;;;23.10;100.00
8398;BME280;4236;54.504;9.588;2023-06-22T04:56:37;101990.06;;;24.01;100.00
8398;BME280;4236;54.504;9.588;2023-06-22T04:59:07;101995.72;;;25.06;100.00
8398;BME280;4236;54.504;9.588;2023-06-22T05:01:39;101987.13;;;25.86;100.00
8398;BME280;4236;54.504;9.588;2023-06-22T05:04:07;101983.22;;;26.75;100.00
8398;BME280;4236;54.504;9.588;2023-06-22T05:06:36;101981.78;;;27.43;100.00
8398;BME280;4236;54.504;9.588;2023-06-22T05:09:07;101981.13;;;27.71;100.00
8398;BME280;4236;54.504;9.588;2023-06-22T05:11:35;101974.09;;;28.09;89.63
8398;BME280;4236;54.504;9.588;2023-06-22T05:14:03;101971.53;;;28.56;90.70
8398;BME280;4236;54.504;9.588;2023-06-22T05:16:31;101975.34;;;29.18;85.16
8398;BME280;4236;54.504;9.588;2023-06-22T05:18:58;101981.88;;;29.27;88.69
8398;BME280;4236;54.504;9.588;2023-06-22T05:21:28;101979.72;;;29.95;79.38
8398;BME280;4236;54.504;9.588;2023-06-22T05:23:56;101973.13;;;30.29;80.86
8398;BME280;4236;54.504;9.588;2023-06-22T05:26:28;101976.41;;;31.00;75.81
8398;BME280;4236;54.504;9.588;2023-06-22T05:28:58;101989.88;;;31.43;73.75
8398;BME280;4236;54.504;9.588;2023-06-22T05:31:27;101986.16;;;32.02;70.35
8398;BME280;4236;54.504;9.588;2023-06-22T05:33:55;101990.41;;;32.21;64.01
8398;BME280;4236;54.504;9.588;2023-06-22T05:36:23;101992.25;;;32.48;64.18
8398;BME280;4236;54.504;9.588;2023-06-22T05:38:52;101985.00;;;32.52;57.53
8398;BME280;4236;54.504;9.588;2023-06-22T05:41:20;101980.13;;;32.36;57.96
8398;BME280;4236;54.504;9.588;2023-06-22T05:43:49;101988.47;;;32.58;56.93
8398;BME280;4236;54.504;9.588;2023-06-22T05:46:17;101986.28;;;32.99;56.33
8398;BME280;4236;54.504;9.588;2023-06-22T05:48:45;101979.88;;;32.90;55.31
8398;BME280;4236;54.504;9.588;2023-06-22T05:51:13;101977.63;;;33.23;53.52
8398;BME280;4236;54.504;9.588;2023-06-22T05:53:41;101987.13;;;33.39;53.38
8398;BME280;4236;54.504;9.588;2023-06-22T05:56:11;101987.06;;;33.61;52.63
8398;BME280;4236;54.504;9.588;2023-06-22T05:58:38;101986.13;;;33.83;48.68
8398;BME280;4236;54.504;9.588;2023-06-22T06:01:07;101989.25;;;33.90;49.37
8398;BME280;4236;54.504;9.588;2023-06-22T06:03:35;101989.44;;;34.36;47.71
8398;BME280;4236;54.504;9.588;2023-06-22T06:06:08;101992.19;;;34.62;47.50
8398;BME280;4236;54.504;9.588;2023-06-22T06:08:37;101992.84;;;34.25;45.76
8398;BME280;4236;54.504;9.588;2023-06-22T06:11:05;101983.94;;;33.54;45.12
8398;BME280;4236;54.504;9.588;2023-06-22T06:13:32;101986.44;;;33.81;47.03
8398;BME280;4236;54.504;9.588;2023-06-22T06:16:00;101990.22;;;32.76;47.43
8398;BME280;4236;54.504;9.588;2023-06-22T06:18:29;101993.06;;;32.49;48.37
8398;BME280;4236;54.504;9.588;2023-06-22T06:20:57;101976.97;;;32.64;48.34
8398;BME280;4236;54.504;9.588;2023-06-22T06:23:25;101976.44;;;32.18;49.16
8398;BME280;4236;54.504;9.588;2023-06-22T06:25:53;101972.31;;;32.51;48.73
8398;BME280;4236;54.504;9.588;2023-06-22T06:28:21;101974.63;;;32.80;48.48
8398;BME280;4236;54.504;9.588;2023-06-22T06:30:49;101973.19;;;32.82;45.94
8398;BME280;4236;54.504;9.588;2023-06-22T06:33:18;101969.41;;;31.98;44.70
8398;BME280;4236;54.504;9.588;2023-06-22T06:35:51;101974.53;;;31.91;46.77
8398;BME280;4236;54.504;9.588;2023-06-22T06:38:19;101974.03;;;31.89;47.13
8398;BME280;4236;54.504;9.588;2023-06-22T06:40:47;101976.09;;;32.55;47.24
8398;BME280;4236;54.504;9.588;2023-06-22T06:43:15;101989.03;;;32.99;46.24
8398;BME280;4236;54.504;9.588;2023-06-22T06:45:43;101985.06;;;33.53;47.15
8398;BME280;4236;54.504;9.588;2023-06-22T06:48:11;101989.34;;;33.59;44.96
8398;BME280;4236;54.504;9.588;2023-06-22T06:50:39;101991.19;;;33.33;44.21
8398;BME280;4236;54.504;9.588;2023-06-22T06:53:08;101985.75;;;33.59;44.36
8398;BME280;4236;54.504;9.588;2023-06-22T06:55:36;101986.09;;;33.66;43.75
8398;BME280;4236;54.504;9.588;2023-06-22T06:58:04;101980.13;;;34.07;40.44
8398;BME280;4236;54.504;9.588;2023-06-22T07:00:34;101980.59;;;33.91;40.75
8398;BME280;4236;54.504;9.588;2023-06-22T07:03:02;101983.34;;;33.74;43.22
8398;BME280;4236;54.504;9.588;2023-06-22T07:05:30;101988.72;;;33.79;42.98
8398;BME280;4236;54.504;9.588;2023-06-22T07:07:57;101982.84;;;33.72;42.29
8398;BME280;4236;54.504;9.588;2023-06-22T07:10:28;101979.81;;;33.52;41.19
8398;BME280;4236;54.504;9.588;2023-06-22T07:12:56;101986.88;;;33.66;40.09
8398;BME280;4236;54.504;9.588;2023-06-22T07:15:24;101981.66;;;33.17;41.07
8398;BME280;4236;54.504;9.588;2023-06-22T07:17:52;101973.97;;;33.45;42.01
8398;BME280;4236;54.504;9.588;2023-06-22T07:20:20;101971.94;;;33.67;39.50
8398;BME280;4236;54.504;9.588;2023-06-22T07:22:47;101970.06;;;33.46;39.47
8398;BME280;4236;54.504;9.588;2023-06-22T07:25:15;101975.44;;;33.42;40.96
8398;BME280;4236;54.504;9.588;2023-06-22T07:27:46;101976.66;;;33.27;39.30
8398;BME280;4236;54.504;9.588;2023-06-22T07:30:14;101979.13;;;33.85;40.40
8398;BME280;4236;54.504;9.588;2023-06-22T07:32:42;101976.72;;;34.18;40.66
8398;BME280;4236;54.504;9.588;2023-06-22T07:35:10;101982.28;;;35.08;39.83
8398;BME280;4236;54.504;9.588;2023-06-22T07:37:37;101976.94;;;35.03;38.51
8398;BME280;4236;54.504;9.588;2023-06-22T07:40:06;101979.88;;;35.44;38.85
8398;BME280;4236;54.504;9.588;2023-06-22T07:42:35;101975.56;;;35.26;37.58
8398;BME280;4236;54.504;9.588;2023-06-22T07:45:05;101981.41;;;34.78;38.58
8398;BME280;4236;54.504;9.588;2023-06-22T07:47:34;101984.00;;;34.74;38.08
8398;BME280;4236;54.504;9.588;2023-06-22T07:50:03;101990.66;;;34.90;37.89
8398;BME280;4236;54.504;9.588;2023-06-22T07:52:32;101991.50;;;34.74;38.84
8398;BME280;4236;54.504;9.588;2023-06-22T07:54:59;101986.81;;;34.40;38.22
8398;BME280;4236;54.504;9.588;2023-06-22T07:57:27;101986.50;;;34.24;38.62
8398;BME280;4236;54.504;9.588;2023-06-22T08:00:00;101979.94;;;34.03;38.65
8398;BME280;4236;54.504;9.588;2023-06-22T08:02:32;101983.00;;;33.76;38.66
8398;BME280;4236;54.504;9.588;2023-06-22T08:04:59;101969.63;;;33.61;38.71
8398;BME280;4236;54.504;9.588;2023-06-22T08:07:46;101977.91;;;32.38;39.15
8398;BME280;4236;54.504;9.588;2023-06-22T08:10:15;101982.41;;;31.84;40.09
8398;BME280;4236;54.504;9.588;2023-06-22T08:12:43;101975.28;;;31.69;40.71
8398;BME280;4236;54.504;9.588;2023-06-22T08:15:11;101979.38;;;31.72;41.09
8398;BME280;4236;54.504;9.588;2023-06-22T08:17:40;101980.31;;;31.67;40.82
8398;BME280;4236;54.504;9.588;2023-06-22T08:20:09;101991.50;;;31.16;41.21
8398;BME280;4236;54.504;9.588;2023-06-22T08:22:38;101980.97;;;31.05;41.44
8398;BME280;4236;54.504;9.588;2023-06-22T08:25:07;101983.16;;;30.89;41.46
8398;BME280;4236;54.504;9.588;2023-06-22T08:27:35;101977.63;;;30.76;41.40
8398;BME280;4236;54.504;9.588;2023-06-22T08:30:04;101976.38;;;30.68;41.07
8398;BME280;4236;54.504;9.588;2023-06-22T08:32:32;101981.38;;;30.66;41.83
8398;BME280;4236;54.504;9.588;2023-06-22T08:35:02;101987.47;;;30.63;42.42
8398;BME280;4236;54.504;9.588;2023-06-22T08:37:30;101980.06;;;30.45;42.73
8398;BME280;4236;54.504;9.588;2023-06-22T08:40:04;101987.50;;;30.77;41.22
8398;BME280;4236;54.504;9.588;2023-06-22T08:42:32;101978.06;;;29.71;42.28
8398;BME280;4236;54.504;9.588;2023-06-22T08:45:00;101975.94;;;29.44;41.56
8398;BME280;4236;54.504;9.588;2023-06-22T08:47:28;101978.16;;;29.13;44.00
8398;BME280;4236;54.504;9.588;2023-06-22T08:49:56;101986.22;;;29.04;43.52
8398;BME280;4236;54.504;9.588;2023-06-22T08:52:25;101977.66;;;28.82;45.20
8398;BME280;4236;54.504;9.588;2023-06-22T08:54:53;101972.88;;;28.59;46.25
8398;BME280;4236;54.504;9.588;2023-06-22T08:57:21;101973.38;;;28.71;44.82
8398;BME280;4236;54.504;9.588;2023-06-22T08:59:49;101971.84;;;28.16;47.13
8398;BME280;4236;54.504;9.588;2023-06-22T09:02:18;101967.53;;;28.00;46.56
8398;BME280;4236;54.504;9.588;2023-06-22T09:04:46;101967.53;;;28.00;47.96
8398;BME280;4236;54.504;9.588;2023-06-22T09:07:15;101964.88;;;27.85;48.76
8398;BME280;4236;54.504;9.588;2023-06-22T09:09:50;101957.91;;;28.08;46.77
8398;BME280;4236;54.504;9.588;2023-06-22T09:12:19;101954.72;;;27.85;47.54
8398;BME280;4236;54.504;9.588;2023-06-22T09:14:51;101958.06;;;27.72;48.49
8398;BME280;4236;54.504;9.588;2023-06-22T09:17:19;101961.47;;;27.49;47.60
8398;BME280;4236;54.504;9.588;2023-06-22T09:19:46;101960.44;;;27.20;47.31
8398;BME280;4236;54.504;9.588;2023-06-22T09:22:15;101962.09;;;27.21;47.62
8398;BME280;4236;54.504;9.588;2023-06-22T09:24:43;101962.84;;;27.52;47.76
8398;BME280;4236;54.504;9.588;2023-06-22T09:27:12;101958.94;;;28.22;46.61
8398;BME280;4236;54.504;9.588;2023-06-22T09:29:40;101968.09;;;28.41;46.28
8398;BME280;4236;54.504;9.588;2023-06-22T09:32:08;101960.56;;;28.56;44.78
8398;BME280;4236;54.504;9.588;2023-06-22T09:34:36;101956.09;;;28.32;44.71
8398;BME280;4236;54.504;9.588;2023-06-22T09:37:05;101960.94;;;28.01;44.57
8398;BME280;4236;54.504;9.588;2023-06-22T09:39:32;101957.22;;;28.26;45.07
8398;BME280;4236;54.504;9.588;2023-06-22T09:42:00;101947.16;;;28.50;44.63
8398;BME280;4236;54.504;9.588;2023-06-22T09:44:29;101953.91;;;28.96;43.23
8398;BME280;4236;54.504;9.588;2023-06-22T09:46:57;101951.44;;;28.95;43.21
8398;BME280;4236;54.504;9.588;2023-06-22T09:49:25;101941.03;;;29.44;42.34
8398;BME280;4236;54.504;9.588;2023-06-22T09:52:12;101945.22;;;29.60;41.56
8398;BME280;4236;54.504;9.588;2023-06-22T09:54:40;101946.78;;;29.67;41.72
8398;BME280;4236;54.504;9.588;2023-06-22T09:57:08;101951.16;;;29.91;42.02
8398;BME280;4236;54.504;9.588;2023-06-22T09:59:37;101949.41;;;29.77;41.58
8398;BME280;4236;54.504;9.588;2023-06-22T10:02:06;101946.94;;;29.75;41.45
8398;BME280;4236;54.504;9.588;2023-06-22T10:04:35;101939.69;;;30.03;41.68
8398;BME280;4236;54.504;9.588;2023-06-22T10:07:04;101933.72;;;30.14;40.86
8398;BME280;4236;54.504;9.588;2023-06-22T10:09:32;101937.16;;;30.06;40.68
8398;BME280;4236;54.504;9.588;2023-06-22T10:12:00;101937.31;;;29.96;40.54
8398;BME280;4236;54.504;9.588;2023-06-22T10:14:28;101937.69;;;29.00;41.31
8398;BME280;4236;54.504;9.588;2023-06-22T10:16:57;101942.13;;;29.20;43.26
8398;BME280;4236;54.504;9.588;2023-06-22T10:19:25;101940.72;;;28.36;46.42
8398;BME280;4236;54.504;9.588;2023-06-22T10:21:53;101930.22;;;28.09;47.07
8398;BME280;4236;54.504;9.588;2023-06-22T10:24:21;101939.06;;;28.35;46.97
8398;BME280;4236;54.504;9.588;2023-06-22T10:26:49;101936.44;;;28.20;47.40
8398;BME280;4236;54.504;9.588;2023-06-22T10:29:18;101944.66;;;28.20;47.45
8398;BME280;4236;54.504;9.588;2023-06-22T10:31:45;101938.84;;;28.31;47.29
8398;BME280;4236;54.504;9.588;2023-06-22T10:34:15;101941.44;;;28.46;45.83
8398;BME280;4236;54.504;9.588;2023-06-22T10:36:42;101928.97;;;27.86;47.29
8398;BME280;4236;54.504;9.588;2023-06-22T10:39:12;101942.94;;;28.29;46.54
8398;BME280;4236;54.504;9.588;2023-06-22T10:41:40;101937.16;;;28.69;45.77
8398;BME280;4236;54.504;9.588;2023-06-22T10:44:08;101934.19;;;28.61;46.13
8398;BME280;4236;54.504;9.588;2023-06-22T10:46:35;101936.47;;;28.15;46.90
8398;BME280;4236;54.504;9.588;2023-06-22T10:49:04;101924.19;;;28.02;47.34
8398;BME280;4236;54.504;9.588;2023-06-22T10:51:33;101918.75;;;27.97;45.82
8398;BME280;4236;54.504;9.588;2023-06-22T10:54:01;101922.91;;;27.89;46.59
8398;BME280;4236;54.504;9.588;2023-06-22T10:56:30;101916.06;;;28.65;45.48
8398;BME280;4236;54.504;9.588;2023-06-22T10:59:00;101900.44;;;27.87;45.83
8398;BME280;4236;54.504;9.588;2023-06-22T11:01:28;101902.66;;;28.24;46.27
8398;BME280;4236;54.504;9.588;2023-06-22T11:04:02;101894.94;;;27.92;46.94
8398;BME280;4236;54.504;9.588;2023-06-22T11:06:32;101894.31;;;28.06;47.69
8398;BME280;4236;54.504;9.588;2023-06-22T11:09:00;101893.84;;;27.88;46.06
8398;BME280;4236;54.504;9.588;2023-06-22T11:11:37;101894.69;;;27.89;46.88
8398;BME280;4236;54.504;9.588;2023-06-22T11:14:05;101882.63;;;27.85;46.55
8398;BME280;4236;54.504;9.588;2023-06-22T11:16:33;101897.81;;;28.11;48.19
8398;BME280;4236;54.504;9.588;2023-06-22T11:19:01;101896.53;;;27.93;48.37
8398;BME280;4236;54.504;9.588;2023-06-22T11:21:29;101895.19;;;27.47;50.42
8398;BME280;4236;54.504;9.588;2023-06-22T11:23:59;101891.75;;;28.19;46.51
8398;BME280;4236;54.504;9.588;2023-06-22T11:26:27;101883.75;;;28.23;45.69
8398;BME280;4236;54.504;9.588;2023-06-22T11:28:55;101886.84;;;28.11;45.83
8398;BME280;4236;54.504;9.588;2023-06-22T11:31:22;101891.28;;;28.07;46.82
8398;BME280;4236;54.504;9.588;2023-06-22T11:33:52;101887.28;;;28.28;47.47
8398;BME280;4236;54.504;9.588;2023-06-22T11:36:20;101888.69;;;27.82;48.08
8398;BME280;4236;54.504;9.588;2023-06-22T11:38:48;101885.13;;;27.81;47.52
8398;BME280;4236;54.504;9.588;2023-06-22T11:41:17;101888.50;;;28.12;46.19
8398;BME280;4236;54.504;9.588;2023-06-22T11:43:45;101892.69;;;28.05;48.55
8398;BME280;4236;54.504;9.588;2023-06-22T11:46:13;101880.63;;;28.68;46.82
8398;BME280;4236;54.504;9.588;2023-06-22T11:48:40;101883.50;;;28.82;45.85
8398;BME280;4236;54.504;9.588;2023-06-22T11:51:08;101885.25;;;28.96;44.36
8398;BME280;4236;54.504;9.588;2023-06-22T11:53:36;101888.53;;;28.41;44.96
8398;BME280;4236;54.504;9.588;2023-06-22T11:56:04;101883.78;;;28.18;45.48
8398;BME280;4236;54.504;9.588;2023-06-22T11:58:35;101890.34;;;28.22;47.64
8398;BME280;4236;54.504;9.588;2023-06-22T12:01:03;101889.63;;;27.62;46.85
8398;BME280;4236;54.504;9.588;2023-06-22T12:03:31;101883.41;;;27.95;46.33
8398;BME280;4236;54.504;9.588;2023-06-22T12:05:59;101883.03;;;28.02;47.07
8398;BME280;4236;54.504;9.588;2023-06-22T12:08:27;101872.03;;;28.12;46.53
8398;BME280;4236;54.504;9.588;2023-06-22T12:10:55;101866.88;;;28.39;46.02
8398;BME280;4236;54.504;9.588;2023-06-22T12:13:23;101865.56;;;28.32;47.31
8398;BME280;4236;54.504;9.588;2023-06-22T12:15:52;101858.84;;;28.19;47.72
8398;BME280;4236;54.504;9.588;2023-06-22T12:18:20;101861.63;;;28.43;47.17
8398;BME280;4236;54.504;9.588;2023-06-22T12:20:48;101854.69;;;28.50;46.60
8398;BME280;4236;54.504;9.588;2023-06-22T12:23:16;101847.78;;;28.58;46.21
8398;BME280;4236;54.504;9.588;2023-06-22T12:25:44;101834.84;;;28.87;45.35
8398;BME280;4236;54.504;9.588;2023-06-22T12:28:12;101844.22;;;28.52;45.67
8398;BME280;4236;54.504;9.588;2023-06-22T12:30:40;101839.47;;;28.06;46.18
8398;BME280;4236;54.504;9.588;2023-06-22T12:33:09;101835.13;;;28.57;45.00
8398;BME280;4236;54.504;9.588;2023-06-22T12:35:37;101827.69;;;28.86;45.50
8398;BME280;4236;54.504;9.588;2023-06-22T12:38:04;101819.94;;;28.70;44.42
8398;BME280;4236;54.504;9.588;2023-06-22T12:40:34;101823.03;;;28.87;43.71
8398;BME280;4236;54.504;9.588;2023-06-22T12:43:02;101822.88;;;28.78;44.36
8398;BME280;4236;54.504;9.588;2023-06-22T12:45:30;101818.94;;;28.55;45.48
8398;BME280;4236;54.504;9.588;2023-06-22T12:48:00;101817.91;;;28.51;45.75
8398;BME280;4236;54.504;9.588;2023-06-22T12:50:29;101818.84;;;28.42;45.96
8398;BME280;4236;54.504;9.588;2023-06-22T12:52:57;101814.38;;;28.75;43.62
8398;BME280;4236;54.504;9.588;2023-06-22T12:55:25;101815.41;;;28.26;45.79
8398;BME280;4236;54.504;9.588;2023-06-22T12:57:53;101816.38;;;28.12;46.37
8398;BME280;4236;54.504;9.588;2023-06-22T13:00:21;101812.09;;;28.58;44.29
8398;BME280;4236;54.504;9.588;2023-06-22T13:02:49;101809.81;;;28.65;44.78
8398;BME280;4236;54.504;9.588;2023-06-22T13:05:18;101812.13;;;29.00;44.51
8398;BME280;4236;54.504;9.588;2023-06-22T13:07:47;101804.41;;;28.84;43.83
8398;BME280;4236;54.504;9.588;2023-06-22T13:10:15;101808.13;;;28.93;43.66
8398;BME280;4236;54.504;9.588;2023-06-22T13:12:43;101802.53;;;28.79;44.15
8398;BME280;4236;54.504;9.588;2023-06-22T13:15:10;101799.47;;;29.04;44.31